Time;durP1;ratioP1;P1;durP2;ratioP2;P2;SDS_P1;SDS_P2;PMS_P1;PMS_P2;Temp;Humidity;BMP_temperature;BMP_pressure;BME280_temperature;BME280_humidity;BME280_pressure;Samples;Min_cycle;Max_cycle;Signal;HPM_P1;HPM_P2
2021/05/25 00:00:25;;;;;;;1.30;1.17;;;16.60;99.90;;;;;;5075086;28;20204;-71
2021/05/25 00:02:51;;;;;;;1.67;1.30;;;16.50;99.90;;;;;;5094776;28;20170;-73
2021/05/25 00:05:23;;;;;;;1.53;1.30;;;16.50;99.90;;;;;;5095553;28;20396;-73
2021/05/25 00:07:48;;;;;;;2.50;1.43;;;16.50;99.90;;;;;;5095349;28;20476;-73
2021/05/25 00:10:14;;;;;;;2.23;1.40;;;16.40;99.90;;;;;;5095336;28;20456;-72
2021/05/25 00:12:40;;;;;;;1.77;1.67;;;16.40;99.90;;;;;;5094860;28;20201;-72
2021/05/25 00:15:11;;;;;;;2.90;1.43;;;16.30;99.90;;;;;;5095406;28;20406;-72
2021/05/25 00:17:37;;;;;;;4.63;1.70;;;16.30;99.90;;;;;;5094685;28;20439;-73
2021/05/25 00:20:06;;;;;;;1.73;1.40;;;16.30;99.90;;;;;;5094923;28;20454;-73
2021/05/25 00:22:31;;;;;;;1.60;1.20;;;16.20;99.90;;;;;;5095107;28;20205;-73
2021/05/25 00:24:57;;;;;;;2.20;1.50;;;16.30;99.90;;;;;;5095192;28;20437;-72
2021/05/25 00:27:22;;;;;;;1.50;1.10;;;16.20;99.90;;;;;;5094742;28;20257;-73
2021/05/25 00:29:48;;;;;;;1.23;1.00;;;16.10;99.90;;;;;;5094691;28;20190;-72
2021/05/25 00:32:13;;;;;;;3.37;1.20;;;16.00;99.90;;;;;;5094518;28;20202;-73
2021/05/25 00:34:39;;;;;;;2.10;1.10;;;15.80;99.90;;;;;;5094770;28;20256;-72
2021/05/25 00:37:04;;;;;;;1.27;1.10;;;15.70;99.90;;;;;;5094606;28;20174;-72
2021/05/25 00:39:30;;;;;;;3.87;1.17;;;15.60;99.90;;;;;;5094487;28;20190;-72
2021/05/25 00:41:55;;;;;;;2.50;1.00;;;15.50;99.90;;;;;;5094537;28;20643;-72
2021/05/25 00:44:21;;;;;;;2.03;1.00;;;15.50;99.90;;;;;;5094659;28;20166;-72
2021/05/25 00:46:46;;;;;;;1.50;1.40;;;15.40;99.90;;;;;;5094132;28;20166;-72
2021/05/25 00:49:12;;;;;;;1.93;1.27;;;15.20;99.90;;;;;;5093241;28;20189;-72
2021/05/25 00:51:39;;;;;;;2.70;1.17;;;15.20;99.90;;;;;;5094299;28;20234;-72
2021/05/25 00:54:05;;;;;;;2.03;1.50;;;15.00;99.90;;;;;;5094370;28;20244;-72
2021/05/25 00:56:31;;;;;;;1.93;1.00;;;15.00;99.90;;;;;;5094163;28;20400;-72
2021/05/25 00:58:57;;;;;;;3.57;1.20;;;14.90;99.90;;;;;;5094144;28;20442;-70
2021/05/25 01:01:22;;;;;;;2.43;1.67;;;14.70;99.90;;;;;;5093929;28;20892;-71
2021/05/25 01:03:48;;;;;;;4.37;1.40;;;14.60;99.90;;;;;;5093963;28;20177;-72
2021/05/25 01:06:13;;;;;;;1.40;1.30;;;14.50;99.90;;;;;;5093854;28;20173;-72
2021/05/25 01:08:39;;;;;;;4.07;1.50;;;14.60;99.90;;;;;;5093928;28;20563;-72
2021/05/25 01:11:07;;;;;;;3.73;1.50;;;14.50;99.90;;;;;;5093892;28;20170;-72
2021/05/25 01:13:43;;;;;;;1.70;1.60;;;14.40;99.90;;;;;;5093921;28;20403;-72
2021/05/25 01:16:09;;;;;;;2.00;1.03;;;14.20;99.90;;;;;;5093826;28;20468;-72
2021/05/25 01:18:35;;;;;;;2.30;1.33;;;14.00;99.90;;;;;;5093549;28;20411;-72
2021/05/25 01:21:01;;;;;;;2.13;1.63;;;14.00;99.90;;;;;;5093976;28;20433;-72
2021/05/25 01:23:27;;;;;;;4.63;1.37;;;14.00;99.90;;;;;;5093688;28;20404;-72
2021/05/25 01:25:53;;;;;;;1.50;1.40;;;13.90;99.90;;;;;;5093950;28;20170;-72
2021/05/25 01:28:20;;;;;;;2.30;1.17;;;13.80;99.90;;;;;;5093333;28;20420;-72
2021/05/25 01:30:49;;;;;;;1.60;1.10;;;13.80;99.90;;;;;;5093580;28;20577;-72
2021/05/25 01:33:15;;;;;;;1.20;1.10;;;13.80;99.90;;;;;;5093255;28;20454;-72
2021/05/25 01:35:42;;;;;;;1.80;1.33;;;13.70;99.90;;;;;;5088940;28;20399;-72
2021/05/25 01:38:10;;;;;;;1.53;1.23;;;13.80;99.90;;;;;;5072973;28;20404;-71
2021/05/25 01:40:36;;;;;;;1.67;1.43;;;13.70;99.90;;;;;;5073211;28;20534;-72
2021/05/25 01:43:03;;;;;;;4.03;1.50;;;13.70;99.90;;;;;;5073175;28;20416;-72
2021/05/25 01:45:30;;;;;;;1.50;1.40;;;13.70;99.90;;;;;;5073200;28;20409;-72
2021/05/25 01:47:58;;;;;;;2.43;1.33;;;13.70;99.90;;;;;;5071509;28;20636;-72
2021/05/25 01:50:25;;;;;;;2.47;1.47;;;13.70;99.90;;;;;;5073153;28;20416;-72
2021/05/25 01:52:52;;;;;;;1.50;1.40;;;13.70;99.90;;;;;;5072928;28;20458;-72
2021/05/25 01:55:31;;;;;;;2.27;1.60;;;13.60;99.90;;;;;;5073038;28;20443;-72
2021/05/25 01:58:17;;;;;;;1.90;1.77;;;13.50;99.90;;;;;;5072608;28;20511;-72
2021/05/25 02:00:49;;;;;;;1.93;1.67;;;13.40;99.90;;;;;;5072763;28;20400;-72
2021/05/25 02:03:17;;;;;;;5.87;1.50;;;13.50;99.90;;;;;;5072635;28;20445;-72
2021/05/25 02:05:43;;;;;;;2.93;1.70;;;13.50;99.90;;;;;;5072626;28;20416;-73
2021/05/25 02:08:09;;;;;;;1.50;1.33;;;13.40;99.90;;;;;;5072460;28;20769;-73
2021/05/25 02:10:38;;;;;;;3.47;1.50;;;13.40;99.90;;;;;;5072691;28;20166;-73
2021/05/25 02:13:09;;;;;;;2.93;1.60;;;13.30;99.90;;;;;;5072358;28;20451;-73
2021/05/25 02:15:35;;;;;;;3.67;2.90;;;13.20;99.90;;;;;;5072575;28;20403;-73
2021/05/25 02:18:07;;;;;;;3.00;1.90;;;13.20;99.90;;;;;;5071874;28;20408;-73
2021/05/25 02:20:33;;;;;;;1.40;1.30;;;13.20;99.90;;;;;;5072360;28;20470;-73
2021/05/25 02:22:58;;;;;;;2.43;1.50;;;13.20;99.90;;;;;;5071131;28;20444;-72
2021/05/25 02:25:24;;;;;;;2.23;1.97;;;13.20;99.90;;;;;;5072448;28;20452;-71
2021/05/25 02:27:50;;;;;;;1.53;1.43;;;13.30;99.90;;;;;;5072055;28;20174;-72
2021/05/25 02:30:15;;;;;;;3.67;2.10;;;13.30;99.90;;;;;;5072168;28;20222;-71
2021/05/25 02:32:41;;;;;;;2.17;1.80;;;13.30;99.90;;;;;;5071930;28;20658;-71
2021/05/25 02:35:07;;;;;;;2.10;1.70;;;13.20;99.90;;;;;;5072170;28;20178;-72
2021/05/25 02:37:33;;;;;;;2.00;1.70;;;13.20;99.90;;;;;;5072065;28;20295;-72
2021/05/25 02:40:01;;;;;;;2.50;1.70;;;13.20;99.90;;;;;;5072151;28;20793;-71
2021/05/25 02:42:26;;;;;;;4.90;1.63;;;13.20;99.90;;;;;;5072065;28;20656;-72
2021/05/25 02:44:52;;;;;;;4.83;1.90;;;13.20;99.90;;;;;;5071957;28;20408;-72
2021/05/25 02:47:17;;;;;;;3.07;1.50;;;13.20;99.90;;;;;;5071825;28;20158;-72
2021/05/25 02:49:43;;;;;;;2.13;1.43;;;13.20;99.90;;;;;;5071907;28;20453;-72
2021/05/25 02:52:08;;;;;;;3.30;2.00;;;13.20;99.90;;;;;;5071682;28;20544;-72
2021/05/25 02:54:34;;;;;;;2.50;1.87;;;13.20;99.90;;;;;;5070734;28;20252;-72
2021/05/25 02:57:00;;;;;;;3.10;1.93;;;13.20;99.90;;;;;;5071722;28;20319;-71
2021/05/25 02:59:25;;;;;;;3.13;2.10;;;13.20;99.90;;;;;;5071861;28;20201;-72
2021/05/25 03:01:51;;;;;;;1.70;1.47;;;13.20;99.90;;;;;;5071622;28;20265;-72
2021/05/25 03:04:16;;;;;;;3.43;2.10;;;13.20;99.90;;;;;;5071959;28;20202;-72
2021/05/25 03:06:42;;;;;;;4.13;1.73;;;13.20;99.90;;;;;;5071647;28;20178;-72
2021/05/25 03:09:07;;;;;;;3.70;2.07;;;13.20;99.90;;;;;;5071632;28;20182;-72
2021/05/25 03:11:33;;;;;;;2.67;2.27;;;13.20;99.90;;;;;;5071142;28;20198;-72
2021/05/25 03:13:59;;;;;;;4.17;2.27;;;13.30;99.90;;;;;;5071618;28;20261;-73
2021/05/25 03:16:24;;;;;;;2.50;1.70;;;13.20;99.90;;;;;;5071440;28;20440;-72
2021/05/25 03:18:50;;;;;;;4.07;1.97;;;13.30;99.90;;;;;;5071811;28;20194;-73
2021/05/25 03:21:16;;;;;;;3.57;2.00;;;13.30;99.90;;;;;;5071486;28;20462;-73
2021/05/25 03:23:41;;;;;;;3.30;2.17;;;13.30;99.90;;;;;;5071581;28;20586;-73
2021/05/25 03:26:07;;;;;;;1.83;1.73;;;13.20;99.90;;;;;;5071592;28;20633;-72
2021/05/25 03:28:32;;;;;;;2.70;1.60;;;13.20;99.90;;;;;;5071475;28;20197;-72
2021/05/25 03:30:58;;;;;;;3.00;2.07;;;13.20;99.90;;;;;;5071536;28;20257;-72
2021/05/25 03:33:23;;;;;;;3.17;2.20;;;13.10;99.90;;;;;;5071600;28;20210;-72
2021/05/25 03:35:49;;;;;;;2.60;2.30;;;13.20;99.90;;;;;;5071593;28;20174;-72
2021/05/25 03:38:14;;;;;;;2.10;1.93;;;13.10;99.90;;;;;;5071439;28;20169;-72
2021/05/25 03:40:40;;;;;;;2.17;2.03;;;13.00;99.90;;;;;;5071505;28;20166;-72
2021/05/25 03:43:06;;;;;;;3.27;2.73;;;13.00;99.90;;;;;;5071253;28;20166;-73
2021/05/25 03:45:31;;;;;;;2.67;2.20;;;13.00;99.90;;;;;;5071428;28;20170;-72
2021/05/25 03:47:57;;;;;;;3.23;1.70;;;13.00;99.90;;;;;;5071098;28;20649;-72
2021/05/25 03:50:23;;;;;;;2.13;1.80;;;12.90;99.90;;;;;;5071315;28;20592;-72
2021/05/25 03:52:52;;;;;;;2.33;2.13;;;12.90;99.90;;;;;;5071147;28;20277;-72
2021/05/25 04:00:45;;;;;;;1.77;1.53;;;12.90;99.90;;;;;;5071358;28;20395;-72
2021/05/25 04:03:11;;;;;;;2.13;1.93;;;12.90;99.90;;;;;;5070899;28;20408;-72
2021/05/25 04:05:36;;;;;;;1.87;1.70;;;13.00;99.90;;;;;;5071206;28;20440;-72
2021/05/25 04:08:03;;;;;;;2.40;1.77;;;13.00;99.90;;;;;;5070920;28;20189;-72
2021/05/25 04:10:28;;;;;;;7.60;2.10;;;12.90;99.90;;;;;;5071006;28;20174;-72
2021/05/25 04:12:54;;;;;;;4.27;1.80;;;12.90;99.90;;;;;;5070836;28;21142;-72
2021/05/25 04:15:21;;;;;;;2.13;1.90;;;13.00;99.90;;;;;;5071234;28;20169;-72
2021/05/25 04:17:46;;;;;;;1.80;1.50;;;13.10;99.90;;;;;;5070968;28;20422;-72
2021/05/25 04:20:12;;;;;;;2.20;1.90;;;13.20;99.90;;;;;;5069746;28;20429;-71
2021/05/25 04:22:39;;;;;;;4.73;2.43;;;13.30;99.90;;;;;;5072693;28;20215;-71
2021/05/25 04:25:06;;;;;;;3.40;1.63;;;13.30;99.90;;;;;;5074606;28;20815;-72
2021/05/25 04:27:31;;;;;;;2.70;1.83;;;13.30;99.90;;;;;;5074659;28;20465;-72
2021/05/25 04:29:57;;;;;;;2.77;2.10;;;13.30;99.90;;;;;;5074583;28;20947;-72
2021/05/25 04:32:22;;;;;;;4.43;2.13;;;13.30;99.90;;;;;;5073094;28;20646;-72
2021/05/25 04:34:48;;;;;;;1.50;1.40;;;13.20;99.90;;;;;;5074660;28;20171;-72
2021/05/25 04:37:13;;;;;;;2.47;1.67;;;13.20;99.90;;;;;;5074267;28;20178;-72
2021/05/25 04:39:39;;;;;;;2.13;1.70;;;13.20;99.90;;;;;;5074401;28;20661;-72
2021/05/25 04:42:05;;;;;;;2.30;2.10;;;13.10;99.90;;;;;;5074332;28;20235;-72
2021/05/25 04:44:31;;;;;;;3.57;1.80;;;13.10;99.90;;;;;;5074326;28;20177;-72
2021/05/25 04:46:56;;;;;;;1.80;1.70;;;13.10;99.90;;;;;;5073988;28;20178;-73
2021/05/25 04:49:22;;;;;;;7.23;2.10;;;13.20;99.90;;;;;;5074075;28;20433;-73
2021/05/25 04:51:47;;;;;;;1.87;1.73;;;13.20;99.90;;;;;;5074031;28;20570;-72
2021/05/25 04:54:13;;;;;;;2.50;2.33;;;13.20;99.90;;;;;;5074114;28;20166;-72
2021/05/25 04:56:39;;;;;;;2.67;1.50;;;13.30;99.90;;;;;;5073948;28;20165;-72
2021/05/25 04:59:05;;;;;;;1.77;1.33;;;13.30;99.90;;;;;;5073515;28;20202;-72
2021/05/25 05:01:31;;;;;;;1.73;1.63;;;13.30;99.90;;;;;;5072227;28;20470;-72
2021/05/25 05:03:56;;;;;;;1.70;1.60;;;13.40;99.90;;;;;;5071891;28;20653;-72
2021/05/25 05:06:22;;;;;;;1.77;1.30;;;13.50;99.90;;;;;;5071650;28;20158;-72
2021/05/25 05:08:47;;;;;;;3.00;1.90;;;13.60;99.90;;;;;;5071817;28;20633;-72
2021/05/25 05:11:12;;;;;;;3.13;1.90;;;13.70;99.90;;;;;;5072502;28;20224;-72
2021/05/25 05:13:38;;;;;;;3.00;1.53;;;13.80;99.90;;;;;;5073872;28;20169;-72
2021/05/25 05:16:04;;;;;;;2.13;1.40;;;13.90;99.90;;;;;;5073772;28;20638;-72
2021/05/25 05:18:30;;;;;;;3.60;1.50;;;13.80;99.90;;;;;;5073161;28;20190;-72
2021/05/25 05:20:56;;;;;;;3.77;1.87;;;13.80;99.90;;;;;;5073519;28;20929;-72
2021/05/25 05:23:21;;;;;;;3.20;1.83;;;13.80;99.90;;;;;;5073296;28;20174;-72
2021/05/25 05:25:47;;;;;;;2.57;1.73;;;13.70;99.90;;;;;;5073698;28;20407;-72
2021/05/25 05:28:13;;;;;;;1.77;1.40;;;13.70;99.90;;;;;;5073250;28;20178;-72
2021/05/25 05:30:39;;;;;;;1.90;1.73;;;13.70;99.90;;;;;;5073423;28;20178;-72
2021/05/25 05:33:06;;;;;;;2.93;1.63;;;13.60;99.90;;;;;;5073077;28;20549;-72
2021/05/25 05:35:32;;;;;;;1.93;1.33;;;13.50;99.90;;;;;;5072603;28;20163;-72
2021/05/25 05:37:57;;;;;;;2.13;1.40;;;13.50;99.90;;;;;;5071728;28;20401;-73
2021/05/25 05:40:23;;;;;;;1.33;1.13;;;13.60;99.90;;;;;;5073104;28;20228;-73
2021/05/25 05:42:49;;;;;;;1.77;1.50;;;13.60;99.90;;;;;;5073366;28;20531;-73
2021/05/25 05:45:14;;;;;;;3.80;1.70;;;13.70;99.90;;;;;;5073117;28;20166;-73
2021/05/25 05:47:40;;;;;;;3.00;1.40;;;13.60;99.90;;;;;;5073036;28;20642;-71
2021/05/25 05:50:10;;;;;;;2.37;2.17;;;13.50;99.90;;;;;;5073579;28;20192;-71
2021/05/25 05:52:40;;;;;;;1.70;1.60;;;13.50;99.90;;;;;;5072594;28;20202;-71
2021/05/25 05:55:07;;;;;;;2.43;1.50;;;13.50;99.90;;;;;;5072841;28;20795;-71
2021/05/25 05:57:33;;;;;;;2.40;2.20;;;13.50;99.90;;;;;;5072344;28;20412;-71
2021/05/25 05:59:58;;;;;;;3.93;2.07;;;13.50;99.90;;;;;;5072632;28;20794;-71
2021/05/25 06:02:24;;;;;;;2.23;1.70;;;13.60;99.90;;;;;;5072497;28;20408;-71
2021/05/25 06:04:49;;;;;;;1.87;1.70;;;13.50;99.90;;;;;;5071486;28;20174;-71
2021/05/25 06:07:16;;;;;;;2.00;1.53;;;13.40;99.90;;;;;;5072406;28;20173;-71
2021/05/25 06:09:42;;;;;;;3.83;1.53;;;13.30;99.90;;;;;;5072466;28;20201;-71
2021/05/25 06:12:08;;;;;;;4.20;1.40;;;13.20;99.90;;;;;;5072450;28;20436;-72
2021/05/25 06:14:33;;;;;;;6.77;1.50;;;13.20;99.90;;;;;;5072452;28;20167;-71
2021/05/25 06:16:59;;;;;;;1.53;1.30;;;13.10;99.90;;;;;;5072193;28;20530;-72
2021/05/25 06:19:25;;;;;;;1.40;1.30;;;13.10;99.90;;;;;;5072252;28;20186;-71
2021/05/25 06:21:50;;;;;;;2.70;1.20;;;13.10;99.90;;;;;;5072363;28;20177;-71
2021/05/25 06:24:16;;;;;;;2.23;1.70;;;13.10;99.90;;;;;;5072079;28;20253;-71
2021/05/25 06:26:42;;;;;;;1.53;1.13;;;13.10;99.90;;;;;;5071945;28;20170;-71
2021/05/25 06:29:07;;;;;;;1.30;1.20;;;13.10;99.90;;;;;;5072117;28;20260;-71
2021/05/25 06:31:33;;;;;;;3.60;1.30;;;13.10;99.90;;;;;;5071982;28;20543;-71
2021/05/25 06:33:58;;;;;;;1.40;1.30;;;13.00;99.90;;;;;;5072727;28;20197;-71
2021/05/25 06:36:24;;;;;;;4.23;1.57;;;13.10;99.90;;;;;;5071733;28;20170;-72
2021/05/25 06:38:49;;;;;;;2.90;1.50;;;13.20;99.90;;;;;;5071888;28;20194;-72
2021/05/25 06:41:15;;;;;;;1.63;1.00;;;13.20;99.90;;;;;;5071925;28;20162;-72
2021/05/25 06:43:40;;;;;;;1.50;1.07;;;13.20;99.90;;;;;;5071961;28;20637;-71
2021/05/25 06:46:07;;;;;;;1.60;1.30;;;13.20;99.90;;;;;;5053147;28;20238;-72
2021/05/25 06:48:33;;;;;;;1.80;1.50;;;13.30;99.90;;;;;;5071895;28;20190;-72
2021/05/25 06:51:00;;;;;;;1.60;1.40;;;13.30;99.90;;;;;;5071760;28;20597;-72
2021/05/25 06:53:26;;;;;;;2.40;1.30;;;13.20;99.90;;;;;;5071713;28;20810;-71
2021/05/25 06:55:52;;;;;;;1.70;1.03;;;13.20;99.90;;;;;;5071933;28;20401;-72
2021/05/25 06:58:17;;;;;;;1.33;1.00;;;13.20;99.90;;;;;;5071216;28;20190;-72
2021/05/25 07:00:42;;;;;;;1.23;1.00;;;13.30;99.90;;;;;;5071799;28;20170;-72
2021/05/25 07:03:08;;;;;;;1.60;1.20;;;13.30;99.90;;;;;;5071678;28;20695;-72
2021/05/25 07:05:33;;;;;;;1.97;1.43;;;13.40;99.90;;;;;;5071578;28;20181;-70
2021/05/25 07:07:59;;;;;;;1.60;1.20;;;13.40;99.90;;;;;;5071316;28;20598;-71
2021/05/25 07:10:24;;;;;;;2.03;1.10;;;13.50;99.90;;;;;;5071520;28;20174;-73
2021/05/25 07:12:50;;;;;;;2.90;1.07;;;13.40;99.90;;;;;;5071658;28;20198;-73
2021/05/25 07:15:15;;;;;;;1.67;1.40;;;13.60;99.90;;;;;;5071650;28;20166;-72
2021/05/25 07:17:51;;;;;;;1.10;1.00;;;13.60;99.90;;;;;;5071453;28;20886;-73
2021/05/25 07:20:17;;;;;;;1.03;0.93;;;13.80;99.90;;;;;;5070584;28;20181;-74
2021/05/25 07:22:42;;;;;;;3.00;1.00;;;13.80;99.90;;;;;;5100185;28;20925;-72
2021/05/25 07:25:08;;;;;;;2.77;1.10;;;13.60;99.90;;;;;;5099256;28;20173;-72
2021/05/25 07:27:34;;;;;;;2.37;1.10;;;13.60;99.90;;;;;;5071436;28;20178;-71
2021/05/25 07:29:59;;;;;;;1.33;0.97;;;13.60;99.90;;;;;;5083300;28;20953;-72
2021/05/25 07:32:25;;;;;;;1.20;1.10;;;13.70;99.90;;;;;;5091362;28;20221;-71
2021/05/25 07:34:50;;;;;;;1.00;0.90;;;13.70;99.90;;;;;;5091432;28;20158;-72
2021/05/25 07:37:16;;;;;;;3.20;1.10;;;13.70;99.90;;;;;;5089853;28;20201;-72
2021/05/25 07:39:41;;;;;;;2.00;1.10;;;13.70;99.90;;;;;;5071089;28;20590;-72
2021/05/25 07:42:08;;;;;;;1.70;1.10;;;13.70;99.90;;;;;;5071615;28;20232;-72
2021/05/25 07:44:34;;;;;;;3.47;1.27;;;13.60;99.90;;;;;;5071311;28;20700;-72
2021/05/25 07:47:00;;;;;;;1.70;1.20;;;13.60;99.90;;;;;;5071059;28;20494;-72
2021/05/25 07:49:25;;;;;;;5.97;1.20;;;13.40;99.90;;;;;;5071323;28;20222;-72
2021/05/25 07:51:51;;;;;;;5.70;2.73;;;13.20;99.90;;;;;;5071314;28;20443;-73
2021/05/25 07:54:17;;;;;;;1.10;1.00;;;13.20;99.90;;;;;;5072025;28;20173;-73
2021/05/25 07:56:42;;;;;;;1.87;1.17;;;13.30;99.90;;;;;;5071650;28;20173;-72
2021/05/25 07:59:08;;;;;;;2.70;1.70;;;13.50;99.90;;;;;;5075110;28;20936;-71
2021/05/25 08:01:33;;;;;;;4.07;3.13;;;13.60;99.90;;;;;;5074791;28;20167;-72
2021/05/25 08:03:59;;;;;;;1.57;0.90;;;13.60;99.90;;;;;;5073582;28;20198;-72
2021/05/25 08:06:24;;;;;;;2.80;1.93;;;13.60;99.90;;;;;;5074696;28;20211;-72
2021/05/25 08:08:50;;;;;;;1.37;1.27;;;13.60;99.90;;;;;;5074953;28;20186;-71
2021/05/25 08:11:15;;;;;;;1.17;1.07;;;13.60;99.90;;;;;;5074821;28;20178;-72
2021/05/25 08:13:41;;;;;;;4.67;1.10;;;13.60;99.90;;;;;;5073432;28;20170;-71
2021/05/25 08:16:07;;;;;;;1.10;1.00;;;13.60;99.90;;;;;;5074861;28;20251;-71
2021/05/25 08:21:02;;;;;;;1.20;1.10;;;13.70;99.90;;;;;;5074843;28;20444;-72
2021/05/25 08:23:27;;;;;;;2.00;0.90;;;13.90;99.90;;;;;;5091015;28;20423;-71
2021/05/25 08:25:53;;;;;;;1.53;0.93;;;14.00;99.90;;;;;;5090881;28;20794;-72
2021/05/25 08:28:19;;;;;;;1.07;0.97;;;14.10;99.90;;;;;;5074156;28;20197;-72
2021/05/25 08:30:45;;;;;;;3.97;1.20;;;13.90;99.90;;;;;;5103452;28;20603;-71
2021/05/25 08:33:12;;;;;;;2.40;0.90;;;14.10;99.90;;;;;;5094381;28;20197;-74
2021/05/25 08:35:38;;;;;;;1.07;0.90;;;14.00;99.90;;;;;;5095936;28;20457;-73
2021/05/25 08:38:06;;;;;;;1.67;1.10;;;14.00;99.90;;;;;;5095039;28;20404;-73
2021/05/25 08:40:35;;;;;;;2.47;1.10;;;13.90;99.90;;;;;;5095574;28;20223;-75
2021/05/25 08:43:00;;;;;;;1.57;1.10;;;13.90;99.90;;;;;;5094036;28;21002;-75
2021/05/25 08:45:27;;;;;;;3.83;1.30;;;14.10;99.90;;;;;;5094350;28;20490;-75
2021/05/25 08:47:55;;;;;;;1.10;1.00;;;13.90;99.90;;;;;;5077714;28;20232;-74
2021/05/25 08:50:25;;;;;;;2.60;1.00;;;13.70;99.90;;;;;;5088490;28;20432;-75
2021/05/25 08:52:51;;;;;;;1.93;1.20;;;13.80;99.90;;;;;;5092045;28;20490;-74
2021/05/25 08:55:19;;;;;;;2.17;1.00;;;14.20;99.90;;;;;;5074037;28;20434;-75
2021/05/25 08:57:45;;;;;;;1.53;0.80;;;14.50;99.90;;;;;;5087778;28;20451;-75
2021/05/25 09:00:11;;;;;;;1.30;0.90;;;14.60;99.90;;;;;;5085062;28;20853;-74
2021/05/25 09:02:37;;;;;;;2.27;1.50;;;14.80;99.90;;;;;;5080391;28;20258;-74
2021/05/25 09:05:19;;;;;;;1.37;1.27;;;14.70;99.90;;;;;;5089578;28;20424;-75
2021/05/25 09:07:54;;;;;;;1.57;0.93;;;14.70;99.90;;;;;;5102062;28;20419;-74
2021/05/25 09:10:37;;;;;;;1.97;1.43;;;14.70;99.90;;;;;;5093234;28;20856;-74
2021/05/25 09:13:10;;;;;;;2.30;0.90;;;14.50;99.90;;;;;;5092648;28;20451;-74
2021/05/25 09:15:44;;;;;;;1.33;0.90;;;14.60;99.90;;;;;;5094108;28;20837;-74
2021/05/25 09:18:12;;;;;;;1.00;0.90;;;14.70;99.90;;;;;;5094040;28;20796;-74
2021/05/25 09:20:50;;;;;;;0.90;0.83;;;14.60;99.90;;;;;;5094141;28;20775;-74
2021/05/25 09:23:31;;;;;;;1.10;1.00;;;15.10;99.90;;;;;;5086197;28;20906;-74
2021/05/25 09:26:06;;;;;;;1.00;0.80;;;15.40;99.90;;;;;;5094179;28;20399;-74
2021/05/25 09:28:36;;;;;;;1.20;1.07;;;15.00;99.90;;;;;;5092455;28;20510;-74
2021/05/25 09:31:08;;;;;;;2.13;1.10;;;15.30;99.90;;;;;;5092161;28;20417;-74
2021/05/25 09:33:41;;;;;;;0.80;0.80;;;16.30;99.90;;;;;;5073093;28;20486;-74
2021/05/25 09:36:14;;;;;;;2.30;0.97;;;16.80;99.90;;;;;;5073324;28;20443;-74
2021/05/25 09:38:47;;;;;;;2.10;0.80;;;17.00;99.90;;;;;;5080837;28;20444;-74
2021/05/25 09:41:20;;;;;;;1.00;0.90;;;17.30;99.90;;;;;;5093997;28;20431;-74
2021/05/25 09:43:57;;;;;;;1.33;0.87;;;17.80;99.90;;;;;;5105376;28;20409;-72
2021/05/25 09:46:31;;;;;;;1.50;0.80;;;18.40;99.90;;;;;;5076589;28;20499;-73
2021/05/25 09:49:06;;;;;;;1.10;0.77;;;18.30;99.90;;;;;;5092278;28;20500;-73
2021/05/25 09:51:34;;;;;;;3.50;1.10;;;17.60;99.90;;;;;;5074216;28;20627;-73
2021/05/25 09:54:02;;;;;;;1.57;0.90;;;17.60;99.90;;;;;;5083912;28;20418;-73
2021/05/25 09:56:49;;;;;;;2.23;1.20;;;17.40;99.90;;;;;;5094330;28;20513;-73
2021/05/25 09:59:31;;;;;;;2.37;0.90;;;17.20;99.90;;;;;;5092938;28;20955;-73
2021/05/25 10:05:20;;;;;;;1.20;1.03;;;16.80;99.90;;;;;;5069778;28;20864;-73
2021/05/25 10:07:57;;;;;;;1.50;1.07;;;16.50;99.90;;;;;;5091968;28;20410;-73
2021/05/25 10:10:24;;;;;;;0.90;0.80;;;16.00;99.90;;;;;;5092829;28;20485;-73
2021/05/25 10:13:04;;;;;;;1.27;0.90;;;16.00;99.90;;;;;;5093051;28;20490;-73
2021/05/25 10:15:30;;;;;;;1.37;0.90;;;15.90;99.90;;;;;;5092759;28;20900;-73
2021/05/25 10:20:47;;;;;;;2.53;0.93;;;15.10;99.90;;;;;;5079615;28;20471;-72
2021/05/25 10:23:22;;;;;;;2.37;0.90;;;14.40;99.90;;;;;;5083829;28;20805;-73
2021/05/25 10:25:55;;;;;;;1.23;0.90;;;14.10;99.90;;;;;;5091433;28;20392;-73
2021/05/25 10:28:28;;;;;;;1.23;0.90;;;13.20;99.90;;;;;;5073556;28;21044;-73
2021/05/25 10:30:56;;;;;;;1.57;1.00;;;12.90;99.90;;;;;;5083227;28;20427;-73
2021/05/25 10:36:18;;;;;;;0.80;0.80;;;13.30;99.90;;;;;;5092977;28;20412;-73
2021/05/25 10:38:47;;;;;;;1.00;0.90;;;13.40;99.90;;;;;;5090606;28;20427;-74
2021/05/25 10:41:33;;;;;;;3.73;0.90;;;13.10;99.90;;;;;;5072039;28;20443;-73
2021/05/25 10:44:02;;;;;;;1.47;1.20;;;13.20;99.90;;;;;;5072109;28;20927;-73
2021/05/25 10:46:29;;;;;;;2.20;0.90;;;13.10;99.90;;;;;;5081121;28;20411;-73
2021/05/25 10:49:11;;;;;;;1.80;1.07;;;13.30;99.90;;;;;;5076190;28;20435;-73
2021/05/25 10:51:51;;;;;;;4.80;1.20;;;13.20;99.90;;;;;;5106660;28;20398;-73
2021/05/25 10:54:44;;;;;;;2.23;1.03;;;12.60;99.90;;;;;;5091943;28;20399;-74
2021/05/25 10:57:54;;;;;;;1.97;1.40;;;12.30;99.90;;;;;;5078392;28;20445;-74
2021/05/25 11:00:29;;;;;;;1.80;1.10;;;12.80;99.90;;;;;;5058840;28;20432;-74
2021/05/25 11:03:14;;;;;;;4.40;1.40;;;12.50;99.90;;;;;;5071562;28;20769;-74
2021/05/25 11:05:48;;;;;;;2.87;1.63;;;12.40;99.90;;;;;;5085538;28;20438;-74
2021/05/25 11:08:20;;;;;;;1.47;1.37;;;12.60;99.90;;;;;;5070826;28;20409;-74
2021/05/25 11:10:59;;;;;;;5.10;1.87;;;12.60;99.90;;;;;;5082808;28;20492;-74
2021/05/25 11:13:30;;;;;;;2.10;1.40;;;12.70;99.90;;;;;;5071957;28;20444;-74
2021/05/25 11:16:13;;;;;;;4.07;1.30;;;13.20;99.90;;;;;;5071305;28;20492;-74
2021/05/25 11:19:19;;;;;;;2.23;1.07;;;13.60;99.90;;;;;;5071541;28;20451;-75
2021/05/25 11:24:41;;;;;;;1.70;1.60;;;13.90;99.90;;;;;;5071768;28;20411;-74
2021/05/25 11:27:43;;;;;;;2.00;1.10;;;14.10;99.90;;;;;;5071121;28;20407;-74
2021/05/25 11:30:29;;;;;;;4.53;1.37;;;14.20;99.90;;;;;;5086907;28;20895;-74
2021/05/25 11:32:57;;;;;;;2.27;1.53;;;14.20;99.90;;;;;;5093500;28;20469;-74
2021/05/25 11:35:33;;;;;;;2.37;1.47;;;14.20;99.90;;;;;;5095829;28;20406;-74
2021/05/25 11:38:03;;;;;;;2.27;1.30;;;14.30;99.90;;;;;;5095797;28;20404;-73
2021/05/25 11:40:36;;;;;;;3.37;1.70;;;14.10;99.90;;;;;;5095982;28;20403;-73
2021/05/25 11:43:02;;;;;;;7.43;1.97;;;14.10;99.90;;;;;;5095587;28;20404;-74
2021/05/25 11:45:29;;;;;;;3.33;2.23;;;14.00;99.90;;;;;;5094300;28;20415;-74
2021/05/25 11:47:57;;;;;;;2.27;1.40;;;13.50;99.90;;;;;;5084133;28;20478;-74
2021/05/25 11:50:23;;;;;;;3.27;1.53;;;13.40;99.90;;;;;;5075608;28;20930;-74
2021/05/25 11:52:51;;;;;;;2.83;1.20;;;13.60;99.90;;;;;;5091539;28;20501;-73
2021/05/25 11:55:19;;;;;;;3.53;1.87;;;13.70;99.90;;;;;;5076392;28;20396;-74
2021/05/25 11:57:49;;;;;;;1.30;1.20;;;13.80;99.90;;;;;;5075624;28;20448;-74
2021/05/25 12:00:21;;;;;;;1.77;1.47;;;14.00;99.90;;;;;;5075300;28;20442;-73
2021/05/25 12:02:47;;;;;;;4.97;1.20;;;13.90;99.90;;;;;;5075019;28;20408;-73
2021/05/25 12:05:19;;;;;;;1.43;1.23;;;14.10;99.90;;;;;;5077323;28;20456;-73
2021/05/25 12:07:47;;;;;;;1.70;1.60;;;13.90;99.90;;;;;;5074823;28;20428;-73
2021/05/25 12:10:16;;;;;;;1.43;1.20;;;13.60;99.90;;;;;;5074974;28;20444;-72
2021/05/25 12:12:45;;;;;;;2.70;1.40;;;13.70;99.90;;;;;;5090177;28;20492;-73
2021/05/25 12:15:13;;;;;;;2.50;1.20;;;14.20;99.90;;;;;;5073652;28;20456;-73
2021/05/25 12:17:41;;;;;;;0.80;0.80;;;14.70;99.90;;;;;;5093784;28;20461;-73
2021/05/25 12:20:08;;;;;;;1.00;0.90;;;15.00;99.90;;;;;;5087759;28;20443;-73
2021/05/25 12:22:37;;;;;;;2.50;1.10;;;15.20;99.90;;;;;;5086214;28;20460;-74
2021/05/25 12:25:26;;;;;;;3.67;1.10;;;14.70;99.90;;;;;;5099414;27;20423;-73
2021/05/25 12:28:04;;;;;;;1.00;0.90;;;15.00;99.90;;;;;;5089555;28;20450;-73
2021/05/25 12:30:30;;;;;;;2.67;0.93;;;15.10;99.90;;;;;;5092015;28;20407;-73
2021/05/25 12:32:56;;;;;;;1.73;0.90;;;15.50;99.90;;;;;;5094731;28;20946;-74
2021/05/25 12:35:24;;;;;;;1.40;1.13;;;15.70;99.90;;;;;;5094776;28;20404;-73
2021/05/25 12:38:14;;;;;;;1.80;1.10;;;15.60;99.90;;;;;;5091557;28;20641;-72
2021/05/25 12:40:42;;;;;;;1.40;1.20;;;15.70;99.90;;;;;;5074410;28;20408;-73
2021/05/25 12:43:22;;;;;;;3.00;1.40;;;16.00;99.90;;;;;;5091138;28;20412;-73
2021/05/25 12:45:49;;;;;;;2.70;1.30;;;16.10;99.90;;;;;;5094492;28;20404;-72
2021/05/25 12:48:15;;;;;;;1.43;1.10;;;16.30;99.90;;;;;;5088318;28;20429;-74
2021/05/25 12:50:42;;;;;;;1.10;0.90;;;16.30;99.90;;;;;;5086508;28;20416;-74
2021/05/25 12:53:12;;;;;;;1.57;1.30;;;15.90;99.90;;;;;;5093082;28;20455;-73
2021/05/25 12:55:55;;;;;;;1.93;0.90;;;15.80;99.90;;;;;;5079748;28;20919;-73
2021/05/25 12:58:38;;;;;;;1.53;1.07;;;16.00;99.90;;;;;;5076429;28;20451;-73
2021/05/25 13:01:31;;;;;;;1.63;0.90;;;15.90;99.90;;;;;;5079415;28;20460;-73
2021/05/25 13:04:03;;;;;;;1.23;0.90;;;15.60;99.90;;;;;;5094076;28;20400;-73
2021/05/25 13:09:14;;;;;;;1.97;0.90;;;15.40;99.90;;;;;;5088809;28;20977;-74
2021/05/25 13:12:02;;;;;;;1.17;1.07;;;15.10;99.90;;;;;;5078444;28;20428;-75
2021/05/25 13:14:30;;;;;;;1.10;1.00;;;14.60;99.90;;;;;;5085616;28;20412;-74
2021/05/25 13:17:01;;;;;;;1.60;1.43;;;14.20;99.90;;;;;;5094185;28;20491;-74